LIPZLIMN

Guest
Details From LIPZ - Venezia Tessera
To LIMN - Cameri
Flight Number -
Tags Generated
Created
Modified
Stats Distance 154 nm / 286 km
Max Altitude 0 ft / 0 m
Waypoints 2
Social Downloads 1
Likes 0
Share VATSIM

Download

Looking for another format? Having issues loading an existing format? Contact us
Advertisement - Login to hide

Notes

Generated

Route

LIPZ LIMN

ID Type Via Altitude Latitude Longitude Leg Dist Tot Dist Heading (true) Name
O LIPZ APT - 0 ft / 0 m 45.49516˚ 12.33556˚ - 0 nm - -
O LIMN APT - 0 ft / 0 m 45.54420˚ 8.66493˚ 154 nm 154 nm 272° / 270° -

Altitude Profile

Advertisement - Login to hide

LIPZ

Details ICAO LIPZ (VCE)
Name Venezia Tessera
Region Italy
Timezone Europe/Rome (UTC+2.0)
Stats Elevation 7 ft / 2 m (AMSL)
Location 45.504791° 12.349691°
Runways 2
Magnetic Variation 3.230° E

METAR

LIPZ 251050Z 14005KT 110V180 CAVOK 26/16 Q1015 NOSIG

Decode

TAF

TAF LIPZ 250500Z 2506/2612 VRB05KT 9999 FEW040 BECMG 2508/2510 16010KT BECMG 2517/2519 03010KT BECMG 2608/2610 16008KT

Decode

Departure Runways

ID Width Length Bearing (true) Bearing (mag) Surface Threshold Offset Overrun Length
04L 148 ft / 45 m 9,112 ft / 2,777 m 42.01° 38.78° Asphalt 312 ft / 95 m 0 ft / 0 m
04R 148 ft / 45 m 10,834 ft / 3,302 m 41.99° 38.76° Asphalt 0 ft / 0 m 0 ft / 0 m
22L 148 ft / 45 m 10,834 ft / 3,302 m 222.01° 218.78° Asphalt 0 ft / 0 m 0 ft / 0 m
22R 148 ft / 45 m 9,112 ft / 2,777 m 222.02° 218.79° Asphalt 0 ft / 0 m 0 ft / 0 m

LIMN

Details ICAO LIMN
Name CAMERI
Region Italy
Timezone Europe/Rome (UTC+2.0)
Stats Elevation 586 ft / 179 m (AMSL)
Location 45.531059° 8.669050°
Runways 1
Magnetic Variation 2.414° E

METAR

LIMN 251055Z 22004KT 150V270 CAVOK 26/15 Q1015 RMK SCT SCT200 VIS MIN 9999 BLU

Decode

TAF

Not found

Destination Runways

ID Width Length Bearing (true) Bearing (mag) Surface Threshold Offset Overrun Length
17 94 ft / 29 m 9,824 ft / 2,994 m 167.60° 165.19° Asphalt 328 ft / 100 m 0 ft / 0 m
35 94 ft / 29 m 9,824 ft / 2,994 m 347.61° 345.20° Asphalt 265 ft / 81 m 0 ft / 0 m